Time;durP1;ratioP1;P1;durP2;ratioP2;P2;SDS_P1;SDS_P2;PMS_P1;PMS_P2;Temp;Humidity;BMP_temperature;BMP_pressure;BME280_temperature;BME280_humidity;BME280_pressure;Samples;Min_cycle;Max_cycle;Signal;HPM_P1;HPM_P2
2022/01/16 00:04:40;;;;;;;21.92;6.70;;;6.40;92.00;;;;;;5033867;28;20069;-63
2022/01/16 00:07:06;;;;;;;17.73;7.22;;;6.40;91.90;;;;;;5019506;28;20073;-63
2022/01/16 00:09:32;;;;;;;18.83;6.38;;;6.40;92.00;;;;;;5031526;28;20037;-63
2022/01/16 00:12:00;;;;;;;18.30;6.75;;;6.40;91.90;;;;;;5021583;28;20026;-63
2022/01/16 00:14:27;;;;;;;19.40;6.57;;;6.40;91.90;;;;;;5028932;28;20124;-63
2022/01/16 00:16:53;;;;;;;20.60;7.45;;;6.40;91.90;;;;;;5022378;28;20429;-63
2022/01/16 00:19:18;;;;;;;17.55;7.30;;;6.40;91.90;;;;;;5029784;28;20049;-63
2022/01/16 00:21:44;;;;;;;19.88;7.05;;;6.30;91.90;;;;;;5033943;28;20033;-63
2022/01/16 00:24:10;;;;;;;20.33;7.30;;;6.30;91.80;;;;;;5026098;28;20380;-63
2022/01/16 00:26:37;;;;;;;20.80;6.75;;;6.30;91.90;;;;;;5013454;28;20438;-64
2022/01/16 00:29:07;;;;;;;18.60;6.68;;;6.30;91.90;;;;;;5029134;28;20045;-63
2022/01/16 00:31:32;;;;;;;20.25;7.45;;;6.30;91.90;;;;;;5014593;28;20030;-63
2022/01/16 00:33:58;;;;;;;23.92;7.60;;;6.20;91.90;;;;;;5013983;28;20527;-63
2022/01/16 00:36:23;;;;;;;20.38;6.93;;;6.20;91.90;;;;;;5013479;28;20396;-64
2022/01/16 00:38:50;;;;;;;21.98;6.80;;;6.20;91.90;;;;;;5025305;28;20025;-62
2022/01/16 00:41:18;;;;;;;20.08;6.30;;;6.20;92.00;;;;;;5031713;28;20025;-62
2022/01/16 00:43:44;;;;;;;18.38;7.53;;;6.20;92.00;;;;;;5030118;28;20041;-62
2022/01/16 00:46:10;;;;;;;20.30;6.20;;;6.20;92.00;;;;;;5032255;28;20022;-62
2022/01/16 00:48:36;;;;;;;19.55;6.30;;;6.20;92.00;;;;;;5026851;28;20373;-62
2022/01/16 00:51:01;;;;;;;18.65;6.80;;;6.20;92.00;;;;;;5027107;28;20036;-62
2022/01/16 00:53:27;;;;;;;18.80;6.07;;;6.10;92.00;;;;;;5017051;28;20033;-63
2022/01/16 00:55:52;;;;;;;19.08;6.35;;;6.10;92.00;;;;;;5013524;28;20048;-62
2022/01/16 00:58:18;;;;;;;16.35;6.85;;;6.10;92.00;;;;;;5014190;28;20041;-62
2022/01/16 01:00:43;;;;;;;18.42;6.05;;;6.10;92.10;;;;;;5022692;28;20618;-62
2022/01/16 01:03:09;;;;;;;17.60;6.60;;;6.10;92.10;;;;;;5024509;28;20037;-62
2022/01/16 01:05:35;;;;;;;21.17;7.28;;;6.10;92.10;;;;;;5012048;28;20029;-62
2022/01/16 01:08:02;;;;;;;18.15;6.80;;;6.10;92.10;;;;;;5012322;28;20405;-62
2022/01/16 01:10:32;;;;;;;16.50;6.55;;;6.10;92.10;;;;;;5019669;28;20472;-62
2022/01/16 01:13:09;;;;;;;18.67;6.53;;;6.10;92.10;;;;;;5026024;28;20030;-62
2022/01/16 01:15:42;;;;;;;15.65;6.70;;;6.10;92.10;;;;;;5012596;28;20109;-62
2022/01/16 01:18:08;;;;;;;16.70;5.70;;;6.10;92.20;;;;;;5019394;28;20033;-62
2022/01/16 01:20:35;;;;;;;13.30;5.95;;;6.10;92.20;;;;;;5020438;28;20034;-62
2022/01/16 01:23:00;;;;;;;18.30;7.53;;;6.10;92.10;;;;;;5028905;28;20028;-62
2022/01/16 01:25:26;;;;;;;16.48;6.55;;;6.00;92.10;;;;;;5032106;28;20476;-62
2022/01/16 01:27:51;;;;;;;18.55;6.63;;;6.00;92.10;;;;;;5026146;28;20120;-62
2022/01/16 01:30:19;;;;;;;17.10;6.50;;;6.00;92.20;;;;;;5011810;28;20041;-61
2022/01/16 01:32:47;;;;;;;17.02;6.70;;;6.00;92.10;;;;;;5030804;28;20493;-62
2022/01/16 01:35:14;;;;;;;15.80;6.60;;;6.00;92.10;;;;;;5031930;28;20038;-62
2022/01/16 01:37:41;;;;;;;18.45;6.90;;;6.00;92.10;;;;;;5014288;28;20022;-62
2022/01/16 01:40:11;;;;;;;14.50;6.40;;;6.00;92.10;;;;;;5011944;28;20061;-62
2022/01/16 01:43:01;;;;;;;23.27;7.80;;;6.00;92.20;;;;;;5028235;28;20411;-62
2022/01/16 01:51:18;;;;;;;17.23;6.60;;;5.90;92.20;;;;;;5029482;28;20033;-62
2022/01/16 01:53:44;;;;;;;21.38;5.88;;;5.90;92.20;;;;;;5026243;28;20120;-62
2022/01/16 01:56:12;;;;;;;17.55;6.10;;;5.80;92.30;;;;;;5010919;28;20081;-62
2022/01/16 01:58:38;;;;;;;21.85;6.43;;;5.70;92.30;;;;;;5022280;28;20038;-62
2022/01/16 02:01:05;;;;;;;19.20;6.55;;;5.80;92.40;;;;;;5029716;28;20143;-63
2022/01/16 02:03:42;;;;;;;18.00;6.72;;;5.80;92.40;;;;;;5021026;28;20042;-62
2022/01/16 02:06:12;;;;;;;20.77;6.95;;;5.70;92.40;;;;;;5011714;28;20030;-62
2022/01/16 02:08:38;;;;;;;16.52;6.53;;;5.80;92.50;;;;;;5022314;28;20180;-62
2022/01/16 02:11:04;;;;;;;16.40;5.40;;;5.70;92.50;;;;;;5031213;28;20108;-62
2022/01/16 02:13:33;;;;;;;23.70;6.95;;;5.70;92.50;;;;;;5029804;28;20472;-62
2022/01/16 02:34:40;;;;;;;20.10;6.90;;;5.70;92.60;;;;;;5028657;28;20517;-62
2022/01/16 02:37:09;;;;;;;21.77;7.63;;;5.80;92.70;;;;;;5011680;28;20041;-62
2022/01/16 02:39:38;;;;;;;12.98;5.88;;;5.80;92.70;;;;;;5025744;28;20029;-62
2022/01/16 02:42:06;;;;;;;20.95;6.22;;;5.80;92.60;;;;;;5011298;28;20041;-61
2022/01/16 02:44:41;;;;;;;17.50;6.15;;;5.80;92.60;;;;;;5026834;28;20037;-61
2022/01/16 02:47:09;;;;;;;;;;;5.80;92.70;;;;;;5031467;28;20029;-61
2022/01/16 02:49:35;;;;;;;16.77;5.70;;;5.80;92.60;;;;;;5016777;28;19913;-62
2022/01/16 02:52:05;;;;;;;16.45;7.25;;;5.70;92.60;;;;;;5011176;28;20184;-62
2022/01/16 02:54:35;;;;;;;20.10;7.28;;;5.70;92.70;;;;;;5025641;28;20030;-62
2022/01/16 02:57:02;;;;;;;20.48;6.32;;;5.70;92.70;;;;;;5016863;28;20033;-62
2022/01/16 02:59:28;;;;;;;17.30;6.35;;;5.70;92.70;;;;;;5024796;28;20041;-62
2022/01/16 03:01:53;;;;;;;19.20;7.65;;;5.60;92.70;;;;;;5030180;28;20777;-62
2022/01/16 03:04:19;;;;;;;20.75;6.50;;;5.60;92.70;;;;;;5029191;28;20492;-62
2022/01/16 03:06:45;;;;;;;19.50;5.72;;;5.60;92.70;;;;;;5020418;28;20030;-62
2022/01/16 03:09:11;;;;;;;18.00;6.43;;;5.60;92.70;;;;;;5015371;28;20036;-63
2022/01/16 03:11:41;;;;;;;17.45;6.38;;;5.60;92.70;;;;;;5024022;28;20109;-63
2022/01/16 03:14:12;;;;;;;27.83;6.40;;;5.50;92.70;;;;;;5033499;28;20080;-63
2022/01/16 03:16:44;;;;;;;24.10;6.80;;;5.50;92.70;;;;;;5024367;28;20026;-63
2022/01/16 03:21:55;;;;;;;20.27;7.40;;;5.40;92.80;;;;;;5033862;28;20033;-62
2022/01/16 03:24:31;;;;;;;14.18;6.20;;;5.40;92.80;;;;;;5032606;28;20045;-62
2022/01/16 03:27:03;;;;;;;16.42;5.72;;;5.40;92.80;;;;;;5032055;28;20028;-62
2022/01/16 03:29:29;;;;;;;17.75;5.68;;;5.30;92.80;;;;;;5026842;28;20048;-63
2022/01/16 03:31:56;;;;;;;18.70;5.20;;;5.30;92.80;;;;;;5034239;28;20096;-62
2022/01/16 03:34:21;;;;;;;15.25;5.78;;;5.20;92.80;;;;;;5032925;28;20079;-63
2022/01/16 03:36:48;;;;;;;14.80;5.38;;;5.20;92.90;;;;;;5027235;28;20029;-62
2022/01/16 03:39:13;;;;;;;18.45;5.25;;;5.10;92.90;;;;;;5024964;28;20417;-62
2022/01/16 03:41:39;;;;;;;16.60;5.68;;;5.00;92.90;;;;;;5014447;28;20033;-62
2022/01/16 03:44:05;;;;;;;12.10;5.20;;;5.00;93.00;;;;;;5024784;28;20044;-63
2022/01/16 03:46:36;;;;;;;17.13;6.18;;;5.00;93.00;;;;;;5015016;28;20104;-63
2022/01/16 03:49:08;;;;;;;15.77;4.90;;;4.90;93.10;;;;;;5027856;28;20116;-62
2022/01/16 03:51:35;;;;;;;19.45;6.00;;;4.80;93.20;;;;;;5033531;28;20451;-62
2022/01/16 03:54:00;;;;;;;18.30;5.35;;;4.80;93.20;;;;;;5032536;28;20028;-62
2022/01/16 03:56:26;;;;;;;19.38;7.28;;;4.80;93.30;;;;;;5016895;28;20034;-62
2022/01/16 03:58:52;;;;;;;24.42;6.25;;;4.80;93.30;;;;;;5023895;28;20022;-62
2022/01/16 04:01:18;;;;;;;17.50;5.88;;;4.70;93.30;;;;;;5031909;28;20547;-62
2022/01/16 04:03:44;;;;;;;21.85;6.28;;;4.70;93.30;;;;;;5032643;28;20079;-62
2022/01/16 04:06:09;;;;;;;25.25;7.38;;;4.70;93.30;;;;;;5014791;28;20443;-62
2022/01/16 04:08:35;;;;;;;18.33;5.88;;;4.60;93.30;;;;;;5024011;28;20041;-62
2022/01/16 04:11:01;;;;;;;16.55;6.32;;;4.60;93.30;;;;;;5033776;28;20170;-62
2022/01/16 04:13:26;;;;;;;16.95;6.22;;;4.60;93.40;;;;;;5032570;28;20626;-62
2022/01/16 04:15:52;;;;;;;20.92;5.00;;;4.60;93.40;;;;;;5033799;28;20022;-63
2022/01/16 04:18:18;;;;;;;17.98;5.20;;;4.50;93.40;;;;;;5023131;28;20030;-62
2022/01/16 04:20:43;;;;;;;18.48;5.63;;;4.50;93.50;;;;;;5012953;28;20018;-62
2022/01/16 04:23:12;;;;;;;19.60;6.03;;;4.50;93.50;;;;;;5024440;28;20436;-62
2022/01/16 04:25:38;;;;;;;21.42;5.78;;;4.50;93.50;;;;;;5033493;28;20048;-62
2022/01/16 04:28:04;;;;;;;19.08;5.05;;;4.50;93.50;;;;;;5027986;28;20018;-62
2022/01/16 04:30:31;;;;;;;17.17;5.65;;;4.40;93.50;;;;;;5032457;28;20040;-62
2022/01/16 04:32:56;;;;;;;19.67;5.47;;;4.30;93.60;;;;;;5014919;28;20033;-62
2022/01/16 04:35:22;;;;;;;23.35;7.70;;;4.30;93.60;;;;;;5033010;28;20685;-62
2022/01/16 04:37:48;;;;;;;19.70;5.55;;;4.30;93.80;;;;;;5014472;28;20034;-62
2022/01/16 04:40:14;;;;;;;20.35;5.88;;;4.20;93.70;;;;;;5033055;28;20033;-62
2022/01/16 04:45:24;;;;;;;21.92;5.95;;;4.20;93.80;;;;;;5023510;28;20030;-63
2022/01/16 04:47:50;;;;;;;14.57;6.07;;;4.20;93.70;;;;;;5030177;28;20036;-63
2022/01/16 04:50:16;;;;;;;15.50;4.85;;;4.20;93.70;;;;;;5027979;28;20076;-62
2022/01/16 04:52:43;;;;;;;18.33;6.47;;;4.10;93.80;;;;;;5032070;28;20113;-63
2022/01/16 04:55:10;;;;;;;19.27;6.20;;;4.10;93.80;;;;;;5019387;28;20030;-62
2022/01/16 04:57:35;;;;;;;14.10;5.97;;;4.10;93.90;;;;;;5017916;28;20029;-62
2022/01/16 05:00:09;;;;;;;17.73;6.05;;;4.00;93.90;;;;;;5045777;28;20072;-61
2022/01/16 05:02:35;;;;;;;22.58;6.32;;;4.00;93.90;;;;;;5026082;28;20034;-62
2022/01/16 05:05:00;;;;;;;17.35;5.38;;;4.10;94.00;;;;;;5031987;28;20099;-62
2022/01/16 05:07:26;;;;;;;23.73;6.65;;;4.00;94.00;;;;;;5032485;28;20107;-62
2022/01/16 05:09:51;;;;;;;17.98;5.07;;;4.00;94.00;;;;;;5031251;28;20033;-62
2022/01/16 05:12:26;;;;;;;13.63;5.43;;;4.00;94.10;;;;;;5025976;28;20097;-62
2022/01/16 05:17:36;;;;;;;16.15;4.85;;;3.90;94.00;;;;;;5013050;28;19920;-62
2022/01/16 05:20:03;;;;;;;16.45;5.53;;;3.90;94.00;;;;;;5014225;28;20030;-62
2022/01/16 05:22:28;;;;;;;20.80;5.70;;;3.90;94.10;;;;;;5016276;28;20044;-62
2022/01/16 05:24:54;;;;;;;23.90;6.00;;;3.90;94.20;;;;;;5030056;28;20492;-62
2022/01/16 05:27:19;;;;;;;14.07;5.47;;;3.90;94.20;;;;;;5028330;28;20093;-62
2022/01/16 05:29:45;;;;;;;13.70;5.55;;;3.90;94.20;;;;;;5028751;28;20029;-61
2022/01/16 05:32:10;;;;;;;18.42;5.88;;;3.90;94.30;;;;;;5031471;28;20097;-62
2022/01/16 05:34:36;;;;;;;19.40;5.68;;;3.90;94.30;;;;;;5030172;28;20178;-62
2022/01/16 05:37:02;;;;;;;11.57;5.15;;;3.90;94.30;;;;;;5029719;28;20025;-61
2022/01/16 05:39:28;;;;;;;19.85;6.05;;;3.90;94.40;;;;;;5025479;28;20083;-62
2022/01/16 05:41:54;;;;;;;14.88;5.63;;;3.80;94.40;;;;;;5030514;28;20551;-61
2022/01/16 05:44:19;;;;;;;19.83;5.05;;;3.80;94.40;;;;;;5023516;28;20132;-63
2022/01/16 05:46:45;;;;;;;19.38;5.53;;;3.80;94.40;;;;;;5031214;28;20439;-62
2022/01/16 05:49:10;;;;;;;21.45;6.13;;;3.80;94.50;;;;;;5018067;28;20026;-62
2022/01/16 05:51:36;;;;;;;15.02;5.13;;;3.80;94.50;;;;;;5011988;28;20025;-62
2022/01/16 05:54:02;;;;;;;18.33;5.97;;;3.70;94.50;;;;;;5023044;28;20489;-62
2022/01/16 05:56:28;;;;;;;15.55;6.75;;;3.70;94.60;;;;;;5032042;28;20147;-61
2022/01/16 05:58:53;;;;;;;12.77;5.57;;;3.70;94.60;;;;;;5019685;28;20028;-61
2022/01/16 06:01:19;;;;;;;20.67;6.05;;;3.60;94.60;;;;;;5019057;28;20110;-61
2022/01/16 06:03:44;;;;;;;15.07;6.05;;;3.60;94.70;;;;;;5029460;28;20079;-61
2022/01/16 06:06:10;;;;;;;23.20;6.97;;;3.60;94.70;;;;;;5025770;28;20025;-62
2022/01/16 06:08:38;;;;;;;18.80;6.75;;;3.60;94.80;;;;;;5019016;28;20037;-62
2022/01/16 06:11:03;;;;;;;23.30;6.85;;;3.60;94.90;;;;;;5029828;28;20350;-62
2022/01/16 06:13:29;;;;;;;18.08;6.88;;;3.60;94.90;;;;;;5028301;28;20056;-62
2022/01/16 06:15:54;;;;;;;22.55;6.90;;;3.60;94.90;;;;;;5026994;28;20028;-62
2022/01/16 06:18:20;;;;;;;19.58;6.68;;;3.60;94.90;;;;;;5023638;28;20037;-62
2022/01/16 06:20:47;;;;;;;22.70;7.65;;;3.60;94.90;;;;;;5031108;28;20583;-63
2022/01/16 06:23:14;;;;;;;16.77;7.78;;;3.60;94.90;;;;;;5030163;28;20496;-62
2022/01/16 06:25:40;;;;;;;19.73;6.50;;;3.60;94.90;;;;;;5013657;28;20041;-63
2022/01/16 06:28:05;;;;;;;21.88;7.60;;;3.60;95.00;;;;;;5020065;28;20018;-62
2022/01/16 06:30:31;;;;;;;17.17;7.75;;;3.60;95.00;;;;;;5021352;28;20388;-62
2022/01/16 06:32:56;;;;;;;22.10;9.48;;;3.60;95.10;;;;;;5015839;28;20089;-62
2022/01/16 06:35:22;;;;;;;18.73;7.63;;;3.60;95.20;;;;;;5030865;28;20031;-62
2022/01/16 06:37:48;;;;;;;15.85;7.88;;;3.60;95.30;;;;;;5029063;28;20030;-62
2022/01/16 06:40:14;;;;;;;25.98;10.07;;;3.60;95.40;;;;;;5012212;28;20543;-62
2022/01/16 06:42:40;;;;;;;20.02;8.73;;;3.60;95.40;;;;;;5029286;28;20064;-62
2022/01/16 06:45:07;;;;;;;19.88;8.32;;;3.60;95.40;;;;;;5035038;28;20072;-62
2022/01/16 06:47:32;;;;;;;19.35;7.90;;;3.60;95.40;;;;;;5026927;28;20030;-62
2022/01/16 06:49:57;;;;;;;22.90;9.05;;;3.50;95.40;;;;;;5033757;28;20538;-62
2022/01/16 06:52:23;;;;;;;28.85;9.27;;;3.50;95.50;;;;;;5034858;28;20034;-62
2022/01/16 06:54:48;;;;;;;24.70;9.90;;;3.40;95.40;;;;;;5023491;28;20380;-62
2022/01/16 06:57:14;;;;;;;15.98;8.38;;;3.50;95.50;;;;;;5034587;28;20029;-62
2022/01/16 06:59:39;;;;;;;23.15;9.13;;;3.50;95.50;;;;;;5033140;28;20457;-62
2022/01/16 07:02:06;;;;;;;22.27;8.95;;;3.50;95.60;;;;;;5034689;28;20042;-62
2022/01/16 07:04:32;;;;;;;20.20;9.27;;;3.50;95.70;;;;;;5031268;28;20045;-62
2022/01/16 07:06:57;;;;;;;23.30;10.20;;;3.50;95.60;;;;;;5034857;28;20028;-63
2022/01/16 07:09:23;;;;;;;23.15;9.10;;;3.50;95.60;;;;;;5031395;28;20033;-62
2022/01/16 07:11:48;;;;;;;26.65;9.57;;;3.60;95.60;;;;;;5017121;28;20560;-62
2022/01/16 07:14:14;;;;;;;27.92;11.13;;;3.50;95.60;;;;;;5014930;28;20026;-62
2022/01/16 07:16:39;;;;;;;20.27;9.32;;;3.50;95.70;;;;;;5014955;28;20029;-62
2022/01/16 07:19:05;;;;;;;21.25;10.38;;;3.50;95.60;;;;;;5026043;28;20160;-62
2022/01/16 07:21:30;;;;;;;22.70;10.07;;;3.50;95.70;;;;;;5030794;28;20025;-62
2022/01/16 07:23:56;;;;;;;25.48;10.02;;;3.50;95.80;;;;;;5021745;28;20041;-62
2022/01/16 07:26:21;;;;;;;22.63;10.45;;;3.50;95.90;;;;;;5014621;28;20029;-63
2022/01/16 07:28:47;;;;;;;26.42;10.40;;;3.50;95.80;;;;;;5032823;28;20485;-62
2022/01/16 07:31:12;;;;;;;20.38;10.57;;;3.50;95.90;;;;;;5018602;28;20762;-62
2022/01/16 07:33:38;;;;;;;23.33;11.32;;;3.50;95.80;;;;;;5023115;28;20034;-62
2022/01/16 07:36:04;;;;;;;22.20;9.63;;;3.60;95.90;;;;;;5033696;28;20025;-62
2022/01/16 07:38:30;;;;;;;28.85;11.00;;;3.60;95.90;;;;;;5032190;28;20192;-62
2022/01/16 07:40:56;;;;;;;21.95;10.57;;;3.60;96.00;;;;;;5027882;28;20033;-62
2022/01/16 07:43:22;;;;;;;20.85;10.40;;;3.60;95.80;;;;;;5024493;28;20037;-61
2022/01/16 07:45:47;;;;;;;16.85;9.50;;;3.60;96.00;;;;;;5029494;28;20404;-62
2022/01/16 07:48:12;;;;;;;20.88;10.15;;;3.60;95.80;;;;;;5021064;28;20026;-64
2022/01/16 07:50:39;;;;;;;25.25;10.88;;;3.60;95.90;;;;;;5016326;28;20034;-62
2022/01/16 07:53:05;;;;;;;21.02;10.15;;;3.70;95.90;;;;;;5017359;28;20481;-63
2022/01/16 07:55:31;;;;;;;19.92;10.02;;;3.60;95.90;;;;;;5026208;28;20488;-63
2022/01/16 07:57:57;;;;;;;18.95;9.95;;;3.70;96.00;;;;;;5027944;28;20026;-63
2022/01/16 08:00:24;;;;;;;21.70;11.27;;;3.80;95.90;;;;;;5027227;28;20049;-63
2022/01/16 08:02:51;;;;;;;20.85;10.88;;;3.70;95.90;;;;;;5028827;28;20056;-63
2022/01/16 08:05:20;;;;;;;27.48;11.07;;;3.80;95.90;;;;;;5021755;28;20029;-63
2022/01/16 08:07:46;;;;;;;22.35;10.88;;;3.90;95.90;;;;;;5022309;28;20084;-63
2022/01/16 08:10:12;;;;;;;24.65;10.95;;;3.90;95.90;;;;;;5022194;28;20469;-63
2022/01/16 08:12:38;;;;;;;24.83;10.85;;;3.90;95.80;;;;;;5023044;28;20664;-63
2022/01/16 08:15:05;;;;;;;20.52;11.80;;;4.00;95.70;;;;;;5032363;28;20026;-63
2022/01/16 08:17:31;;;;;;;21.08;11.32;;;3.90;95.70;;;;;;5025346;28;20026;-63
2022/01/16 08:19:57;;;;;;;23.67;13.43;;;3.90;95.70;;;;;;5019804;28;20518;-63
2022/01/16 08:22:22;;;;;;;29.63;13.38;;;3.80;95.70;;;;;;5029156;28;20025;-63
2022/01/16 08:24:48;;;;;;;23.00;13.20;;;3.90;95.80;;;;;;5014155;28;20446;-62
2022/01/16 08:27:15;;;;;;;24.67;13.25;;;3.80;95.80;;;;;;5019501;28;20017;-63
2022/01/16 08:29:41;;;;;;;23.50;12.38;;;3.90;95.90;;;;;;5022643;28;20037;-62
2022/01/16 08:32:07;;;;;;;21.35;12.80;;;3.90;95.90;;;;;;5015501;28;20104;-62
2022/01/16 08:34:33;;;;;;;21.25;11.88;;;3.90;96.00;;;;;;5029772;28;20492;-63
2022/01/16 08:36:58;;;;;;;19.17;11.48;;;4.00;96.00;;;;;;5014973;28;20088;-64
2022/01/16 08:39:24;;;;;;;27.23;14.00;;;4.00;95.90;;;;;;5029937;28;20536;-64
2022/01/16 08:41:49;;;;;;;25.02;12.25;;;4.00;95.90;;;;;;5014049;28;20026;-63
2022/01/16 08:44:15;;;;;;;25.65;12.27;;;4.00;95.90;;;;;;5029314;28;20392;-63
2022/01/16 08:46:41;;;;;;;24.90;13.30;;;4.00;95.90;;;;;;5028067;28;20039;-63
2022/01/16 08:49:07;;;;;;;24.30;12.70;;;4.10;96.00;;;;;;5017551;28;20045;-62
2022/01/16 08:51:32;;;;;;;19.70;13.07;;;4.10;96.20;;;;;;5012908;28;20030;-62
2022/01/16 08:53:58;;;;;;;26.90;13.32;;;4.10;96.00;;;;;;5018425;28;20026;-62
2022/01/16 08:56:24;;;;;;;24.35;12.18;;;4.20;96.00;;;;;;5028346;28;20026;-62
2022/01/16 08:58:49;;;;;;;22.17;13.20;;;4.30;96.00;;;;;;5022394;28;20476;-63
2022/01/16 09:01:15;;;;;;;25.80;13.57;;;4.30;95.90;;;;;;5018115;28;20045;-62
2022/01/16 09:03:40;;;;;;;24.98;13.73;;;4.30;95.90;;;;;;5031040;28;20041;-62
2022/01/16 09:06:06;;;;;;;31.17;14.05;;;4.30;95.80;;;;;;5022444;28;20044;-62
2022/01/16 09:08:31;;;;;;;25.27;12.70;;;4.40;95.90;;;;;;5030089;28;20432;-62
2022/01/16 09:10:57;;;;;;;29.92;12.75;;;4.40;95.90;;;;;;5012419;28;20049;-63
2022/01/16 09:13:23;;;;;;;24.95;13.65;;;4.50;95.90;;;;;;5022794;28;20065;-63
2022/01/16 09:15:50;;;;;;;23.60;14.00;;;4.50;95.80;;;;;;5026332;28;20014;-63
2022/01/16 09:18:17;;;;;;;29.17;15.75;;;4.50;95.80;;;;;;5020810;28;20018;-64
2022/01/16 09:20:43;;;;;;;22.45;13.60;;;4.50;95.80;;;;;;5018146;28;20591;-63
2022/01/16 09:23:09;;;;;;;25.23;14.07;;;4.60;95.90;;;;;;5018935;28;20032;-63
2022/01/16 09:25:35;;;;;;;27.30;15.52;;;4.60;95.80;;;;;;5018121;28;20094;-63
2022/01/16 09:28:01;;;;;;;29.17;15.15;;;4.70;95.80;;;;;;5012324;28;20033;-63
2022/01/16 09:30:28;;;;;;;30.38;14.45;;;4.70;95.80;;;;;;5017831;28;20045;-63
2022/01/16 09:32:54;;;;;;;30.20;14.20;;;4.80;95.80;;;;;;5027600;28;20029;-63
2022/01/16 09:35:20;;;;;;;24.90;14.18;;;4.90;95.80;;;;;;5025510;28;20022;-63
2022/01/16 09:37:46;;;;;;;30.67;13.55;;;4.90;95.70;;;;;;5020687;28;20029;-63
2022/01/16 09:40:14;;;;;;;28.05;14.65;;;5.00;95.70;;;;;;5015452;28;20017;-63
2022/01/16 09:42:40;;;;;;;24.65;13.60;;;5.00;95.60;;;;;;5020525;28;20029;-63
2022/01/16 09:45:08;;;;;;;25.70;14.40;;;5.10;95.50;;;;;;5031676;28;20080;-63
2022/01/16 09:47:33;;;;;;;24.40;14.38;;;5.10;95.50;;;;;;5021363;28;20089;-63
2022/01/16 09:49:59;;;;;;;26.90;14.55;;;5.20;95.50;;;;;;5022249;28;20033;-62
2022/01/16 09:52:25;;;;;;;30.55;15.07;;;5.20;95.50;;;;;;5030654;28;20044;-62
2022/01/16 09:54:51;;;;;;;26.17;16.40;;;5.30;95.40;;;;;;5023673;28;20064;-62
2022/01/16 09:57:17;;;;;;;26.95;14.80;;;5.30;95.40;;;;;;5029732;28;20065;-62
2022/01/16 09:59:46;;;;;;;28.63;15.88;;;5.30;95.40;;;;;;5026391;28;20053;-62
2022/01/16 10:02:12;;;;;;;25.13;15.25;;;5.40;95.40;;;;;;5020325;28;20076;-63
2022/01/16 10:04:41;;;;;;;26.88;16.13;;;5.40;95.40;;;;;;5024868;28;20037;-63
2022/01/16 10:07:09;;;;;;;29.88;16.33;;;5.40;95.40;;;;;;5011493;28;20087;-63
2022/01/16 10:09:36;;;;;;;28.30;16.13;;;5.50;95.40;;;;;;5028707;28;20029;-63
2022/01/16 10:12:13;;;;;;;29.35;14.98;;;5.50;95.40;;;;;;5016885;28;20048;-63
2022/01/16 10:14:46;;;;;;;28.02;14.77;;;5.60;95.30;;;;;;5025949;28;20611;-62
2022/01/16 10:17:14;;;;;;;25.52;15.00;;;5.60;95.20;;;;;;5021759;28;20029;-62
2022/01/16 10:19:39;;;;;;;28.80;14.85;;;5.70;95.20;;;;;;5021671;28;20496;-62
2022/01/16 10:22:08;;;;;;;29.30;16.10;;;5.70;95.20;;;;;;5020831;28;20056;-62
2022/01/16 10:24:35;;;;;;;26.20;15.13;;;5.80;95.20;;;;;;5020742;28;20048;-63
2022/01/16 10:27:10;;;;;;;24.42;15.02;;;5.70;95.10;;;;;;5016559;28;20537;-63
2022/01/16 10:29:41;;;;;;;24.35;15.60;;;5.80;95.00;;;;;;5028392;28;20029;-63
2022/01/16 10:32:19;;;;;;;23.52;15.05;;;5.80;95.00;;;;;;5030062;28;20029;-63
2022/01/16 10:34:49;;;;;;;25.45;14.80;;;5.80;95.00;;;;;;5015375;28;20025;-63
2022/01/16 10:37:24;;;;;;;24.17;14.15;;;5.80;94.90;;;;;;5022952;28;20156;-63
2022/01/16 10:39:59;;;;;;;23.08;13.30;;;5.80;94.90;;;;;;5016476;28;20092;-63
2022/01/16 10:42:26;;;;;;;23.60;11.93;;;5.80;95.00;;;;;;5011892;28;20052;-63
2022/01/16 10:44:59;;;;;;;19.45;13.02;;;5.80;95.00;;;;;;5016152;28;20042;-64
2022/01/16 10:47:37;;;;;;;22.83;13.55;;;5.70;94.90;;;;;;5011214;28;20088;-64
2022/01/16 10:50:02;;;;;;;19.73;13.57;;;5.60;95.00;;;;;;5034155;28;20025;-64
2022/01/16 10:52:28;;;;;;;22.38;13.00;;;5.50;95.00;;;;;;5035646;28;20084;-64
2022/01/16 10:54:53;;;;;;;24.60;14.35;;;5.50;95.10;;;;;;5020098;28;20022;-64
2022/01/16 10:57:27;;;;;;;19.80;12.93;;;5.50;95.10;;;;;;5033746;28;20025;-64
2022/01/16 11:00:15;;;;;;;23.40;14.23;;;5.50;95.20;;;;;;5017199;28;20216;-64
2022/01/16 11:02:42;;;;;;;21.98;13.18;;;5.40;95.20;;;;;;5018024;28;20030;-64
2022/01/16 11:05:20;;;;;;;20.88;12.07;;;5.40;95.20;;;;;;5020757;28;20033;-64
2022/01/16 11:07:54;;;;;;;22.27;11.95;;;5.40;95.30;;;;;;5011608;28;20026;-63
2022/01/16 11:10:30;;;;;;;21.65;12.65;;;5.40;95.30;;;;;;5010741;28;20034;-64
2022/01/16 11:13:05;;;;;;;21.65;11.90;;;5.40;95.40;;;;;;5013471;28;20041;-63
2022/01/16 11:15:32;;;;;;;26.45;14.85;;;5.30;95.50;;;;;;5027585;28;20036;-64
2022/01/16 11:17:59;;;;;;;25.30;13.25;;;5.30;95.60;;;;;;5025073;28;20041;-64
2022/01/16 11:20:36;;;;;;;26.63;14.43;;;5.30;95.60;;;;;;5018167;28;20112;-64
2022/01/16 11:23:12;;;;;;;23.40;14.63;;;5.30;95.70;;;;;;5022947;28;20034;-62
2022/01/16 11:25:39;;;;;;;24.98;13.88;;;5.40;95.90;;;;;;5018337;28;20034;-63
2022/01/16 11:28:06;;;;;;;23.75;13.80;;;5.40;96.00;;;;;;5020610;28;20029;-63
2022/01/16 11:30:34;;;;;;;25.58;14.18;;;5.40;96.10;;;;;;5030945;28;20022;-61
2022/01/16 11:33:00;;;;;;;24.63;14.43;;;5.30;96.00;;;;;;5017250;28;20029;-61
2022/01/16 11:35:28;;;;;;;24.05;13.10;;;5.40;96.10;;;;;;5029920;28;20033;-61
2022/01/16 11:37:55;;;;;;;25.00;14.73;;;5.40;96.10;;;;;;5024642;28;20025;-62
2022/01/16 11:40:50;;;;;;;23.80;12.98;;;5.40;96.10;;;;;;5027432;28;20033;-62
2022/01/16 11:43:35;;;;;;;24.17;14.10;;;5.40;96.10;;;;;;5017632;28;20068;-63
2022/01/16 11:46:10;;;;;;;25.20;12.97;;;5.40;96.10;;;;;;5028695;28;20033;-62
2022/01/16 11:48:40;;;;;;;;;;;5.50;96.20;;;;;;5022113;28;20034;-62
2022/01/16 11:51:34;;;;;;;24.35;14.23;;;5.50;96.10;;;;;;5016196;28;19917;-62
2022/01/16 11:54:07;;;;;;;28.07;15.23;;;5.50;96.20;;;;;;5030034;28;20041;-63
2022/01/16 11:56:38;;;;;;;24.10;14.27;;;5.50;96.30;;;;;;5016573;28;20083;-62
2022/01/16 11:59:28;;;;;;;23.15;13.68;;;5.50;96.30;;;;;;5026020;28;20033;-62
2022/01/16 12:02:19;;;;;;;26.00;15.77;;;5.50;96.40;;;;;;5014662;28;20038;-62
2022/01/16 12:04:57;;;;;;;25.23;14.50;;;5.50;96.40;;;;;;5019123;28;20050;-62
2022/01/16 12:07:31;;;;;;;22.65;12.95;;;5.60;96.40;;;;;;5017597;28;20491;-62
2022/01/16 12:09:57;;;;;;;23.70;13.55;;;5.50;96.50;;;;;;5023797;28;20049;-62
2022/01/16 12:12:23;;;;;;;23.77;12.55;;;5.60;96.60;;;;;;5014857;28;20099;-62
2022/01/16 12:14:48;;;;;;;22.92;13.48;;;5.60;96.60;;;;;;5029942;28;20032;-63
2022/01/16 12:17:41;;;;;;;26.38;14.90;;;5.60;96.60;;;;;;5023307;28;20025;-62
2022/01/16 12:22:46;;;;;;;24.38;14.15;;;5.70;96.70;;;;;;5027583;28;20034;-64
2022/01/16 12:25:47;;;;;;;24.73;15.07;;;5.60;96.80;;;;;;5013592;28;20037;-63
2022/01/16 12:28:14;;;;;;;22.23;13.77;;;5.60;96.90;;;;;;5015661;28;20033;-64
2022/01/16 12:30:55;;;;;;;26.10;15.23;;;5.60;96.90;;;;;;5018531;28;20029;-64
2022/01/16 12:33:27;;;;;;;25.13;13.90;;;5.70;97.00;;;;;;5017689;28;20033;-64
2022/01/16 12:35:58;;;;;;;23.80;13.55;;;5.70;97.00;;;;;;5032648;28;20029;-64
2022/01/16 12:38:23;;;;;;;25.55;13.82;;;5.80;97.10;;;;;;5013212;28;20038;-64
2022/01/16 12:41:11;;;;;;;27.88;14.70;;;5.80;97.00;;;;;;5013144;28;20033;-65
2022/01/16 12:43:41;;;;;;;22.60;13.90;;;5.80;97.10;;;;;;5022538;28;20057;-64
2022/01/16 12:46:12;;;;;;;25.15;14.40;;;5.80;97.20;;;;;;5031927;28;20033;-64
2022/01/16 12:48:39;;;;;;;23.33;13.68;;;5.90;97.10;;;;;;5019196;28;20033;-64
2022/01/16 12:51:06;;;;;;;23.70;14.23;;;5.90;97.10;;;;;;5015677;28;20030;-64
2022/01/16 12:53:44;;;;;;;23.48;14.60;;;5.90;97.10;;;;;;5020642;28;20056;-64
2022/01/16 12:56:22;;;;;;;25.35;14.88;;;5.90;97.10;;;;;;5023097;28;20030;-65
2022/01/16 12:58:49;;;;;;;25.08;14.43;;;5.90;97.10;;;;;;5028593;28;20021;-65
2022/01/16 13:01:15;;;;;;;26.95;15.25;;;5.90;97.10;;;;;;5018963;28;20042;-65
2022/01/16 13:03:43;;;;;;;25.10;14.43;;;6.00;97.20;;;;;;5014772;28;20045;-65
2022/01/16 13:06:28;;;;;;;25.85;14.65;;;5.90;97.20;;;;;;5031296;28;20028;-65
2022/01/16 13:09:09;;;;;;;28.73;16.27;;;6.00;97.20;;;;;;5030438;28;20102;-65
2022/01/16 13:11:39;;;;;;;28.05;15.38;;;6.00;97.20;;;;;;5025903;28;20034;-64
2022/01/16 13:14:07;;;;;;;27.42;15.02;;;6.00;97.20;;;;;;5020591;28;20485;-63
2022/01/16 13:16:36;;;;;;;29.00;14.57;;;6.00;97.30;;;;;;5031236;28;20095;-64
2022/01/16 13:19:09;;;;;;;26.10;14.88;;;6.00;97.30;;;;;;5030639;28;20076;-63
2022/01/16 13:21:58;;;;;;;28.33;15.65;;;6.00;97.30;;;;;;5018799;28;20034;-63
2022/01/16 13:24:27;;;;;;;27.20;14.65;;;6.00;97.40;;;;;;5017752;28;20046;-64
2022/01/16 13:26:53;;;;;;;28.15;16.13;;;6.00;97.40;;;;;;5023521;28;20022;-64